Prados, Brazil
Current Conditions -  °F | °C
As of 3:00 PM on Friday 28 Nov 2014 (Local Time) from SBBQ Reporting Station
Broken Clouds Broken Clouds  
Wind Chill: 70°   Ceiling: 1000
Heat Index: 70°   Visibility: 6mi
Dew Point: 64°   Wind: 8mph
Humidity: 83%   Direction: 150°SSE
Pressure: 30.12"   Gusts: NA
Location:  21.06°S, 44.08°W
Report Text: SBBQ 281700Z 15007KT 9999 BKN010 21/18 Q1020
Loading
Personal Weather Stations






























Interactive Weather Map New forecast layout! Learn more

10-Day Weather Forecast

Advertisements
Track Severe Weather on mobile